Dacula, GA (30019)

1:31 PM EDT on September 03, 2015 (GMT -0400)
Dacula, GA | | Change Station
CLOSE
Current Station
Personal Weather Station
Location: Dacula, GA
Elevation: 1007 ft
Nearby Weather Stations

Elev 1007 ft 33.96 °N, 83.86 °W | Updated 55 seconds ago

Mostly Cloudy
Mostly Cloudy
89.1 °F
Feels Like 97 °F
N
0.0
Wind Variable Wind from North
Gusts 3.8 mph

Today
High -- | Low -- °F
--% Chance of Precip.
Yesterday
High -- | Low -- °F
Precip. -- in
7:10 AM 7:58 PM
Waning Gibbous, 68% visible
Pressure 30.04 in
Visibility 10.0 miles
Clouds Scattered Clouds 2500 ft
Mostly Cloudy 8000 ft
Heat Index 97 °F
Dew Point 73 °F
Humidity 59%
Rainfall 0.00 in
Snow Depth Not available.
UV 6 out of 12
Pollen 8.60 out of 12
Air Quality Not available.
Flu Activity Not available.
METAR KWDR 031715Z AUTO 00000KT 10SM SCT025 BKN080 31/22 A3004 RMK AO1 LTG DSNT NW
Pressure 30.04 in
Visibility 10.0 miles
Clouds Scattered Clouds 2500 ft
Mostly Cloudy 8000 ft
Heat Index 97 °F
Dew Point 73 °F
Humidity 59%
Rainfall 0.00 in
Snow Depth Not available.
UV 6 out of 12
Pollen 8.60 out of 12
Air Quality Not available.
Flu Activity Not available.
METAR KWDR 031715Z AUTO 00000KT 10SM SCT025 BKN080 31/22 A3004 RMK AO1 LTG DSNT NW

10-Day Weather Forecast

×

Almanac

Astronomy

Sep. 03, 2015 Rise Set
Actual Time
Civil Twilight
Nautical Twilight
Astronomical Twilight
Moon
Length of Visible Light
Length of Day
Tomorrow will be .
, % of the Moon is Illuminated

Today's Extremes

State Highs State Lows

Community

WunderPhotos

Upload Photos

1,851,991 photos uploaded!

WunderBlogs® & News

Nearby

Air Quality

  Air Quality AQ Index Pollutant
Not available.

Snow Depth

Station Depth Elevation

Earthquake Activity

City Distance Mag. Time & Date
Minimum magnitude displayed is 2.5.

Coastal Water Temperatures

Place Temperature

Stations

Nearby Weather Stations

Station Location Temp. Windchill Dew Point Humidity Wind Precip. Elev Updated Type